sensor_id;sensor_type;location;lat;lon;timestamp;pressure;altitude;pressure_sealevel;temperature;humidity
67377;BME280;54261;46.086;6.588;2023-05-16T00:04:04;92081.19;;;11.84;40.05
67377;BME280;54261;46.086;6.588;2023-05-16T00:09:06;92086.75;;;11.66;40.47
67377;BME280;54261;46.086;6.588;2023-05-16T00:14:08;92084.41;;;11.18;41.07
67377;BME280;54261;46.086;6.588;2023-05-16T00:19:10;92075.69;;;11.68;41.11
67377;BME280;54261;46.086;6.588;2023-05-16T00:24:12;92074.69;;;11.85;40.14
67377;BME280;54261;46.086;6.588;2023-05-16T00:29:13;92068.56;;;11.04;41.55
67377;BME280;54261;46.086;6.588;2023-05-16T00:34:15;92082.41;;;11.74;41.15
67377;BME280;54261;46.086;6.588;2023-05-16T00:39:18;92090.47;;;11.86;40.78
67377;BME280;54261;46.086;6.588;2023-05-16T00:44:20;92075.50;;;11.98;40.65
67377;BME280;54261;46.086;6.588;2023-05-16T00:49:23;92067.19;;;11.91;40.53
67377;BME280;54261;46.086;6.588;2023-05-16T00:54:25;92072.13;;;11.88;40.37
67377;BME280;54261;46.086;6.588;2023-05-16T00:59:29;92072.25;;;12.05;40.34
67377;BME280;54261;46.086;6.588;2023-05-16T01:04:32;92062.97;;;12.02;40.06
67377;BME280;54261;46.086;6.588;2023-05-16T01:09:34;92054.22;;;12.05;40.38
67377;BME280;54261;46.086;6.588;2023-05-16T01:14:48;92046.78;;;11.77;40.56
67377;BME280;54261;46.086;6.588;2023-05-16T01:30:42;92035.53;;;10.70;41.20
67377;BME280;54261;46.086;6.588;2023-05-16T01:41:31;92034.72;;;10.70;41.53
67377;BME280;54261;46.086;6.588;2023-05-16T01:46:37;92029.41;;;11.03;41.04
67377;BME280;54261;46.086;6.588;2023-05-16T01:51:43;92011.25;;;10.67;40.76
67377;BME280;54261;46.086;6.588;2023-05-16T01:56:55;92018.47;;;10.54;40.73
67377;BME280;54261;46.086;6.588;2023-05-16T02:01:58;92010.06;;;9.83;42.10
67377;BME280;54261;46.086;6.588;2023-05-16T02:07:00;92015.53;;;9.65;42.60
67377;BME280;54261;46.086;6.588;2023-05-16T02:12:02;92015.06;;;10.23;42.82
67377;BME280;54261;46.086;6.588;2023-05-16T02:17:05;92011.13;;;10.63;42.22
67377;BME280;54261;46.086;6.588;2023-05-16T02:22:07;92022.91;;;10.50;42.41
67377;BME280;54261;46.086;6.588;2023-05-16T02:27:09;92023.03;;;10.32;42.87
67377;BME280;54261;46.086;6.588;2023-05-16T02:32:11;92023.22;;;10.69;42.54
67377;BME280;54261;46.086;6.588;2023-05-16T02:37:13;92009.09;;;10.94;42.31
67377;BME280;54261;46.086;6.588;2023-05-16T02:42:15;92020.19;;;10.92;42.88
67377;BME280;54261;46.086;6.588;2023-05-16T02:47:17;92019.59;;;11.08;41.82
67377;BME280;54261;46.086;6.588;2023-05-16T02:52:19;92017.97;;;10.94;42.33
67377;BME280;54261;46.086;6.588;2023-05-16T02:57:21;91994.06;;;10.46;42.74
67377;BME280;54261;46.086;6.588;2023-05-16T03:02:22;92013.13;;;11.21;42.46
67377;BME280;54261;46.086;6.588;2023-05-16T03:07:25;92006.56;;;10.97;42.31
67377;BME280;54261;46.086;6.588;2023-05-16T03:12:27;92002.88;;;10.68;42.01
67377;BME280;54261;46.086;6.588;2023-05-16T03:17:28;91995.66;;;11.15;42.34
67377;BME280;54261;46.086;6.588;2023-05-16T03:22:31;91969.38;;;10.87;42.29
67377;BME280;54261;46.086;6.588;2023-05-16T03:27:32;91977.03;;;10.97;41.99
67377;BME280;54261;46.086;6.588;2023-05-16T03:32:34;91999.78;;;11.12;42.11
67377;BME280;54261;46.086;6.588;2023-05-16T03:37:37;91994.97;;;11.18;41.86
67377;BME280;54261;46.086;6.588;2023-05-16T03:42:39;91980.47;;;11.31;42.09
67377;BME280;54261;46.086;6.588;2023-05-16T03:47:41;91988.25;;;10.99;41.88
67377;BME280;54261;46.086;6.588;2023-05-16T03:52:43;92003.75;;;11.40;41.70
67377;BME280;54261;46.086;6.588;2023-05-16T03:57:45;91998.38;;;10.17;43.30
67377;BME280;54261;46.086;6.588;2023-05-16T04:02:48;92011.94;;;10.42;43.47
67377;BME280;54261;46.086;6.588;2023-05-16T04:07:50;92010.66;;;11.16;43.45
67377;BME280;54261;46.086;6.588;2023-05-16T04:12:52;92014.09;;;11.04;43.84
67377;BME280;54261;46.086;6.588;2023-05-16T04:17:54;92014.75;;;11.47;42.51
67377;BME280;54261;46.086;6.588;2023-05-16T04:22:57;92004.81;;;11.14;42.92
67377;BME280;54261;46.086;6.588;2023-05-16T04:27:59;92013.66;;;11.60;42.34
67377;BME280;54261;46.086;6.588;2023-05-16T04:33:00;92018.34;;;11.76;42.81
67377;BME280;54261;46.086;6.588;2023-05-16T04:38:03;92002.16;;;11.14;43.82
67377;BME280;54261;46.086;6.588;2023-05-16T04:43:05;92017.63;;;11.42;43.88
67377;BME280;54261;46.086;6.588;2023-05-16T04:48:07;92003.44;;;10.19;46.11
67377;BME280;54261;46.086;6.588;2023-05-16T04:53:09;92013.56;;;10.89;46.37
67377;BME280;54261;46.086;6.588;2023-05-16T04:58:11;92000.16;;;10.89;44.81
67377;BME280;54261;46.086;6.588;2023-05-16T05:03:13;92002.09;;;10.46;46.42
67377;BME280;54261;46.086;6.588;2023-05-16T05:08:14;92011.13;;;9.60;47.66
67377;BME280;54261;46.086;6.588;2023-05-16T05:13:17;92006.94;;;10.32;46.70
67377;BME280;54261;46.086;6.588;2023-05-16T05:18:19;92005.22;;;10.70;46.09
67377;BME280;54261;46.086;6.588;2023-05-16T05:23:21;92005.25;;;11.87;44.46
67377;BME280;54261;46.086;6.588;2023-05-16T05:28:22;92005.56;;;12.23;43.75
67377;BME280;54261;46.086;6.588;2023-05-16T05:33:27;92002.84;;;12.35;43.06
67377;BME280;54261;46.086;6.588;2023-05-16T05:38:32;92007.47;;;11.85;42.59
67377;BME280;54261;46.086;6.588;2023-05-16T05:43:33;92004.47;;;11.62;44.96
67377;BME280;54261;46.086;6.588;2023-05-16T05:48:36;92008.06;;;10.86;45.27
67377;BME280;54261;46.086;6.588;2023-05-16T05:53:38;91995.03;;;11.80;44.60
67377;BME280;54261;46.086;6.588;2023-05-16T05:58:40;91995.28;;;11.75;44.68
67377;BME280;54261;46.086;6.588;2023-05-16T06:03:46;92004.50;;;10.82;44.93
67377;BME280;54261;46.086;6.588;2023-05-16T06:08:48;91988.84;;;8.82;51.23
67377;BME280;54261;46.086;6.588;2023-05-16T06:13:53;91992.31;;;7.86;53.17
67377;BME280;54261;46.086;6.588;2023-05-16T06:18:55;91994.22;;;8.47;52.79
67377;BME280;54261;46.086;6.588;2023-05-16T06:23:56;92000.19;;;9.74;50.89
67377;BME280;54261;46.086;6.588;2023-05-16T06:28:58;91997.47;;;9.05;52.15
67377;BME280;54261;46.086;6.588;2023-05-16T06:34:00;92005.97;;;10.58;48.05
67377;BME280;54261;46.086;6.588;2023-05-16T06:39:02;92000.50;;;8.51;52.79
67377;BME280;54261;46.086;6.588;2023-05-16T06:44:05;92006.28;;;7.33;56.19
67377;BME280;54261;46.086;6.588;2023-05-16T06:49:07;91991.22;;;5.92;61.30
67377;BME280;54261;46.086;6.588;2023-05-16T06:54:09;91997.13;;;7.26;60.31
67377;BME280;54261;46.086;6.588;2023-05-16T06:59:11;91999.09;;;8.62;56.23
67377;BME280;54261;46.086;6.588;2023-05-16T07:04:13;91990.47;;;6.51;60.00
67377;BME280;54261;46.086;6.588;2023-05-16T07:09:16;91994.78;;;9.53;53.85
67377;BME280;54261;46.086;6.588;2023-05-16T07:14:18;92003.47;;;10.10;51.69
67377;BME280;54261;46.086;6.588;2023-05-16T07:19:20;92014.47;;;7.05;56.68
67377;BME280;54261;46.086;6.588;2023-05-16T07:24:22;92000.84;;;9.32;53.29
67377;BME280;54261;46.086;6.588;2023-05-16T07:29:24;91991.91;;;7.12;57.77
67377;BME280;54261;46.086;6.588;2023-05-16T07:34:26;91997.91;;;9.55;52.00
67377;BME280;54261;46.086;6.588;2023-05-16T07:39:28;92004.44;;;8.71;56.04
67377;BME280;54261;46.086;6.588;2023-05-16T07:44:30;91991.97;;;9.41;51.56
67377;BME280;54261;46.086;6.588;2023-05-16T07:49:32;91997.00;;;10.11;52.23
67377;BME280;54261;46.086;6.588;2023-05-16T07:54:34;91985.66;;;7.65;55.36
67377;BME280;54261;46.086;6.588;2023-05-16T07:59:36;91988.63;;;9.23;54.23
67377;BME280;54261;46.086;6.588;2023-05-16T08:04:38;91996.41;;;10.05;51.36
67377;BME280;54261;46.086;6.588;2023-05-16T08:09:40;92000.97;;;9.45;50.24
67377;BME280;54261;46.086;6.588;2023-05-16T08:14:41;91996.38;;;9.06;54.71
67377;BME280;54261;46.086;6.588;2023-05-16T08:19:43;91993.63;;;8.15;56.15
67377;BME280;54261;46.086;6.588;2023-05-16T08:24:45;91988.25;;;10.99;51.46
67377;BME280;54261;46.086;6.588;2023-05-16T08:29:47;92001.88;;;11.40;49.17
67377;BME280;54261;46.086;6.588;2023-05-16T08:34:49;91956.31;;;7.83;55.79
67377;BME280;54261;46.086;6.588;2023-05-16T08:39:51;92006.00;;;8.19;54.97
67377;BME280;54261;46.086;6.588;2023-05-16T08:44:53;92021.59;;;10.77;52.16
67377;BME280;54261;46.086;6.588;2023-05-16T08:49:56;92013.75;;;11.89;48.50
67377;BME280;54261;46.086;6.588;2023-05-16T08:55:02;91997.72;;;12.18;46.96
67377;BME280;54261;46.086;6.588;2023-05-16T09:00:12;91994.28;;;11.67;47.92
67377;BME280;54261;46.086;6.588;2023-05-16T09:05:16;91980.13;;;9.81;52.44
67377;BME280;54261;46.086;6.588;2023-05-16T09:10:18;91999.53;;;10.71;50.26
67377;BME280;54261;46.086;6.588;2023-05-16T09:15:20;91993.38;;;10.50;53.44
67377;BME280;54261;46.086;6.588;2023-05-16T09:20:22;91982.69;;;10.28;53.67
67377;BME280;54261;46.086;6.588;2023-05-16T09:25:29;91975.09;;;8.92;53.30
67377;BME280;54261;46.086;6.588;2023-05-16T09:30:33;91980.00;;;9.77;53.12
67377;BME280;54261;46.086;6.588;2023-05-16T09:35:35;91957.03;;;9.67;50.89
67377;BME280;54261;46.086;6.588;2023-05-16T09:40:46;91980.81;;;10.96;48.55
67377;BME280;54261;46.086;6.588;2023-05-16T09:45:48;91990.41;;;10.09;50.01
67377;BME280;54261;46.086;6.588;2023-05-16T09:50:51;91985.41;;;8.64;52.09
67377;BME280;54261;46.086;6.588;2023-05-16T09:56:02;91983.09;;;8.27;54.74
67377;BME280;54261;46.086;6.588;2023-05-16T10:01:07;91965.38;;;8.79;53.00
67377;BME280;54261;46.086;6.588;2023-05-16T10:06:10;91985.94;;;10.89;50.01
67377;BME280;54261;46.086;6.588;2023-05-16T10:11:15;92000.03;;;10.01;51.42
67377;BME280;54261;46.086;6.588;2023-05-16T10:16:20;91996.16;;;12.29;48.14
67377;BME280;54261;46.086;6.588;2023-05-16T10:21:24;91991.25;;;8.13;56.46
67377;BME280;54261;46.086;6.588;2023-05-16T10:26:28;91989.03;;;7.98;58.13
67377;BME280;54261;46.086;6.588;2023-05-16T10:31:31;91981.47;;;7.33;58.81
67377;BME280;54261;46.086;6.588;2023-05-16T10:36:33;91980.69;;;8.70;59.05
67377;BME280;54261;46.086;6.588;2023-05-16T10:41:35;91984.72;;;9.11;55.72
67377;BME280;54261;46.086;6.588;2023-05-16T10:46:37;91983.97;;;8.75;55.52
67377;BME280;54261;46.086;6.588;2023-05-16T10:51:39;91979.56;;;8.79;57.07
67377;BME280;54261;46.086;6.588;2023-05-16T10:56:41;91982.69;;;9.98;51.96
67377;BME280;54261;46.086;6.588;2023-05-16T11:01:51;91992.28;;;10.08;53.63
67377;BME280;54261;46.086;6.588;2023-05-16T11:06:53;91997.84;;;11.59;48.14
67377;BME280;54261;46.086;6.588;2023-05-16T11:12:01;91987.34;;;9.59;51.83
67377;BME280;54261;46.086;6.588;2023-05-16T11:17:11;92003.78;;;10.72;49.19
67377;BME280;54261;46.086;6.588;2023-05-16T11:27:29;92004.00;;;11.47;47.09
67377;BME280;54261;46.086;6.588;2023-05-16T11:32:43;91996.72;;;12.63;42.04
67377;BME280;54261;46.086;6.588;2023-05-16T11:37:46;91997.34;;;12.85;41.76
67377;BME280;54261;46.086;6.588;2023-05-16T11:42:48;92014.66;;;13.93;40.29
67377;BME280;54261;46.086;6.588;2023-05-16T11:47:50;92001.13;;;14.25;40.25
67377;BME280;54261;46.086;6.588;2023-05-16T11:52:53;91990.88;;;13.50;39.71
67377;BME280;54261;46.086;6.588;2023-05-16T11:57:58;91995.59;;;13.37;38.99
67377;BME280;54261;46.086;6.588;2023-05-16T12:03:01;92007.47;;;14.17;38.39
67377;BME280;54261;46.086;6.588;2023-05-16T12:08:05;91999.59;;;13.43;39.19
67377;BME280;54261;46.086;6.588;2023-05-16T12:13:07;92009.84;;;13.54;38.80
67377;BME280;54261;46.086;6.588;2023-05-16T12:18:10;92009.22;;;13.28;40.49
67377;BME280;54261;46.086;6.588;2023-05-16T12:23:12;92018.50;;;11.21;43.23
67377;BME280;54261;46.086;6.588;2023-05-16T12:28:15;92001.16;;;12.84;40.03
67377;BME280;54261;46.086;6.588;2023-05-16T12:33:16;92008.47;;;13.44;38.12
67377;BME280;54261;46.086;6.588;2023-05-16T12:38:19;91998.06;;;13.75;38.81
67377;BME280;54261;46.086;6.588;2023-05-16T12:43:22;92007.16;;;10.05;44.78
67377;BME280;54261;46.086;6.588;2023-05-16T12:48:31;92006.22;;;11.57;42.70
67377;BME280;54261;46.086;6.588;2023-05-16T12:53:44;92021.69;;;11.73;42.70
67377;BME280;54261;46.086;6.588;2023-05-16T12:59:02;92029.09;;;12.13;42.02
67377;BME280;54261;46.086;6.588;2023-05-16T13:04:04;92005.09;;;11.34;41.86
67377;BME280;54261;46.086;6.588;2023-05-16T13:09:06;92010.16;;;12.63;39.54
67377;BME280;54261;46.086;6.588;2023-05-16T13:14:08;92004.97;;;12.83;39.09
67377;BME280;54261;46.086;6.588;2023-05-16T13:19:10;92001.75;;;11.86;41.33
67377;BME280;54261;46.086;6.588;2023-05-16T13:24:12;91991.88;;;8.63;43.08
67377;BME280;54261;46.086;6.588;2023-05-16T13:29:13;91983.50;;;9.39;44.27
67377;BME280;54261;46.086;6.588;2023-05-16T13:34:15;92014.78;;;11.01;42.61
67377;BME280;54261;46.086;6.588;2023-05-16T13:39:17;92010.06;;;12.06;42.57
67377;BME280;54261;46.086;6.588;2023-05-16T13:44:19;92011.00;;;12.51;39.71
67377;BME280;54261;46.086;6.588;2023-05-16T13:49:23;92014.50;;;12.27;39.11
67377;BME280;54261;46.086;6.588;2023-05-16T13:54:25;92011.84;;;11.65;39.55
67377;BME280;54261;46.086;6.588;2023-05-16T13:59:27;92029.78;;;11.14;40.97
67377;BME280;54261;46.086;6.588;2023-05-16T14:04:49;92011.81;;;12.27;38.37
67377;BME280;54261;46.086;6.588;2023-05-16T14:09:51;92025.09;;;11.24;39.03
67377;BME280;54261;46.086;6.588;2023-05-16T14:14:53;92027.06;;;11.85;38.79
67377;BME280;54261;46.086;6.588;2023-05-16T14:19:56;92026.97;;;12.72;37.24
67377;BME280;54261;46.086;6.588;2023-05-16T14:24:58;92016.94;;;10.23;39.53
67377;BME280;54261;46.086;6.588;2023-05-16T14:30:00;92032.22;;;11.53;39.86
67377;BME280;54261;46.086;6.588;2023-05-16T14:35:04;92034.84;;;13.06;37.20
67377;BME280;54261;46.086;6.588;2023-05-16T14:40:07;92030.19;;;11.50;39.79
67377;BME280;54261;46.086;6.588;2023-05-16T14:45:10;92043.22;;;12.23;37.10
67377;BME280;54261;46.086;6.588;2023-05-16T14:50:12;92037.13;;;12.38;39.22
67377;BME280;54261;46.086;6.588;2023-05-16T14:55:14;92024.34;;;13.17;37.04
67377;BME280;54261;46.086;6.588;2023-05-16T15:00:22;92042.09;;;13.34;36.17
67377;BME280;54261;46.086;6.588;2023-05-16T15:05:24;92044.44;;;11.76;37.94
67377;BME280;54261;46.086;6.588;2023-05-16T15:10:26;92033.13;;;13.30;36.64
67377;BME280;54261;46.086;6.588;2023-05-16T15:15:28;92039.78;;;13.04;37.11
67377;BME280;54261;46.086;6.588;2023-05-16T15:20:30;92050.31;;;14.18;35.31
67377;BME280;54261;46.086;6.588;2023-05-16T15:25:32;92037.84;;;13.05;37.87
67377;BME280;54261;46.086;6.588;2023-05-16T15:30:34;92028.44;;;14.23;35.42
67377;BME280;54261;46.086;6.588;2023-05-16T15:35:36;92042.84;;;12.90;37.23
67377;BME280;54261;46.086;6.588;2023-05-16T15:40:38;92042.03;;;12.61;37.80
67377;BME280;54261;46.086;6.588;2023-05-16T15:45:42;92035.00;;;12.97;36.80
67377;BME280;54261;46.086;6.588;2023-05-16T15:50:44;92043.69;;;14.16;35.75
67377;BME280;54261;46.086;6.588;2023-05-16T15:55:46;92043.22;;;13.33;37.31
67377;BME280;54261;46.086;6.588;2023-05-16T16:00:49;92057.53;;;14.14;35.45
67377;BME280;54261;46.086;6.588;2023-05-16T16:05:50;92064.19;;;13.56;35.61
67377;BME280;54261;46.086;6.588;2023-05-16T16:10:52;92047.94;;;13.08;35.92
67377;BME280;54261;46.086;6.588;2023-05-16T16:15:54;92063.97;;;13.17;36.71
67377;BME280;54261;46.086;6.588;2023-05-16T16:20:56;92083.41;;;12.56;37.39
67377;BME280;54261;46.086;6.588;2023-05-16T16:25:58;92075.78;;;13.56;35.58
67377;BME280;54261;46.086;6.588;2023-05-16T16:31:01;92077.34;;;13.57;35.80
67377;BME280;54261;46.086;6.588;2023-05-16T16:36:03;92054.97;;;12.96;36.87
67377;BME280;54261;46.086;6.588;2023-05-16T16:41:05;92092.09;;;13.48;36.38
67377;BME280;54261;46.086;6.588;2023-05-16T16:46:07;92074.94;;;11.34;39.32
67377;BME280;54261;46.086;6.588;2023-05-16T16:51:09;92086.66;;;11.16;41.02
67377;BME280;54261;46.086;6.588;2023-05-16T16:56:11;92095.38;;;12.96;37.89
67377;BME280;54261;46.086;6.588;2023-05-16T17:01:13;92082.34;;;11.95;39.69
67377;BME280;54261;46.086;6.588;2023-05-16T17:06:15;92099.47;;;13.06;38.12
67377;BME280;54261;46.086;6.588;2023-05-16T17:11:17;92107.22;;;12.17;39.72
67377;BME280;54261;46.086;6.588;2023-05-16T17:16:27;92112.31;;;12.72;38.37
67377;BME280;54261;46.086;6.588;2023-05-16T17:21:30;92093.75;;;11.34;39.18
67377;BME280;54261;46.086;6.588;2023-05-16T17:26:32;92107.25;;;10.61;40.97
67377;BME280;54261;46.086;6.588;2023-05-16T17:31:34;92123.16;;;12.22;39.34
67377;BME280;54261;46.086;6.588;2023-05-16T17:36:36;92112.25;;;12.56;38.71
67377;BME280;54261;46.086;6.588;2023-05-16T17:41:38;92114.25;;;12.84;37.10
67377;BME280;54261;46.086;6.588;2023-05-16T17:46:40;92124.47;;;12.16;38.08
67377;BME280;54261;46.086;6.588;2023-05-16T17:51:53;92118.72;;;10.70;41.51
67377;BME280;54261;46.086;6.588;2023-05-16T17:56:55;92135.03;;;11.63;39.59
67377;BME280;54261;46.086;6.588;2023-05-16T18:01:58;92123.31;;;11.46;39.84
67377;BME280;54261;46.086;6.588;2023-05-16T18:07:00;92141.94;;;11.51;39.91
67377;BME280;54261;46.086;6.588;2023-05-16T18:12:02;92122.22;;;11.13;40.19
67377;BME280;54261;46.086;6.588;2023-05-16T18:17:04;92135.22;;;9.91;42.81
67377;BME280;54261;46.086;6.588;2023-05-16T18:22:06;92132.38;;;8.87;44.45
67377;BME280;54261;46.086;6.588;2023-05-16T18:27:09;92135.91;;;10.99;41.06
67377;BME280;54261;46.086;6.588;2023-05-16T18:32:11;92143.38;;;9.47;43.04
67377;BME280;54261;46.086;6.588;2023-05-16T18:37:13;92141.91;;;10.96;40.99
67377;BME280;54261;46.086;6.588;2023-05-16T18:42:15;92142.03;;;11.42;39.68
67377;BME280;54261;46.086;6.588;2023-05-16T18:47:17;92137.59;;;9.84;42.80
67377;BME280;54261;46.086;6.588;2023-05-16T18:52:21;92149.69;;;8.54;45.18
67377;BME280;54261;46.086;6.588;2023-05-16T18:57:23;92143.63;;;10.80;40.44
67377;BME280;54261;46.086;6.588;2023-05-16T19:02:25;92141.47;;;11.83;39.12
67377;BME280;54261;46.086;6.588;2023-05-16T19:07:42;92167.53;;;11.15;39.33
67377;BME280;54261;46.086;6.588;2023-05-16T19:12:44;92160.41;;;11.53;38.37
67377;BME280;54261;46.086;6.588;2023-05-16T19:17:49;92167.19;;;10.74;39.67
67377;BME280;54261;46.086;6.588;2023-05-16T19:22:51;92161.00;;;10.95;39.04
67377;BME280;54261;46.086;6.588;2023-05-16T19:27:53;92178.25;;;10.03;40.76
67377;BME280;54261;46.086;6.588;2023-05-16T19:32:55;92176.38;;;10.34;41.02
67377;BME280;54261;46.086;6.588;2023-05-16T19:37:58;92175.72;;;10.37;40.39
67377;BME280;54261;46.086;6.588;2023-05-16T19:43:00;92194.53;;;10.67;39.67
67377;BME280;54261;46.086;6.588;2023-05-16T19:48:02;92189.56;;;10.09;41.83
67377;BME280;54261;46.086;6.588;2023-05-16T19:53:04;92202.19;;;10.78;39.95
67377;BME280;54261;46.086;6.588;2023-05-16T19:58:06;92217.38;;;10.73;39.43
67377;BME280;54261;46.086;6.588;2023-05-16T20:03:08;92203.19;;;8.72;41.80
67377;BME280;54261;46.086;6.588;2023-05-16T20:08:10;92204.59;;;10.70;39.57
67377;BME280;54261;46.086;6.588;2023-05-16T20:13:12;92220.06;;;11.25;38.56
67377;BME280;54261;46.086;6.588;2023-05-16T20:18:18;92224.50;;;11.21;37.82
67377;BME280;54261;46.086;6.588;2023-05-16T20:23:20;92233.19;;;10.96;39.06
67377;BME280;54261;46.086;6.588;2023-05-16T20:28:22;92200.16;;;9.97;39.85
67377;BME280;54261;46.086;6.588;2023-05-16T20:33:24;92231.28;;;11.48;38.03
67377;BME280;54261;46.086;6.588;2023-05-16T20:38:26;92234.66;;;11.91;36.74
67377;BME280;54261;46.086;6.588;2023-05-16T20:43:28;92233.09;;;10.15;39.07
67377;BME280;54261;46.086;6.588;2023-05-16T20:48:30;92232.09;;;10.67;38.10
67377;BME280;54261;46.086;6.588;2023-05-16T20:53:32;92196.31;;;9.41;40.61
67377;BME280;54261;46.086;6.588;2023-05-16T20:58:35;92237.25;;;9.68;41.44
67377;BME280;54261;46.086;6.588;2023-05-16T21:03:41;92227.84;;;9.27;42.00
67377;BME280;54261;46.086;6.588;2023-05-16T21:08:43;92235.38;;;10.73;39.42
67377;BME280;54261;46.086;6.588;2023-05-16T21:13:45;92246.53;;;10.84;39.60
67377;BME280;54261;46.086;6.588;2023-05-16T21:18:47;92233.78;;;10.42;39.75
67377;BME280;54261;46.086;6.588;2023-05-16T21:23:49;92232.38;;;9.61;40.64
67377;BME280;54261;46.086;6.588;2023-05-16T21:28:51;92237.22;;;7.99;44.45
67377;BME280;54261;46.086;6.588;2023-05-16T21:33:56;92242.88;;;7.75;45.27
67377;BME280;54261;46.086;6.588;2023-05-16T21:38:58;92242.66;;;8.57;43.75
67377;BME280;54261;46.086;6.588;2023-05-16T21:44:00;92250.16;;;9.92;40.93
67377;BME280;54261;46.086;6.588;2023-05-16T21:49:02;92264.44;;;10.32;41.10
67377;BME280;54261;46.086;6.588;2023-05-16T21:54:04;92263.00;;;8.76;42.42
67377;BME280;54261;46.086;6.588;2023-05-16T21:59:06;92255.69;;;8.99;42.18
67377;BME280;54261;46.086;6.588;2023-05-16T22:04:08;92258.59;;;8.31;43.50
67377;BME280;54261;46.086;6.588;2023-05-16T22:09:10;92263.81;;;7.82;44.45
67377;BME280;54261;46.086;6.588;2023-05-16T22:14:12;92264.38;;;9.49;42.06
67377;BME280;54261;46.086;6.588;2023-05-16T22:19:14;92271.94;;;8.22;43.33
67377;BME280;54261;46.086;6.588;2023-05-16T22:24:16;92266.03;;;8.34;42.80
67377;BME280;54261;46.086;6.588;2023-05-16T22:29:18;92256.66;;;6.72;46.52
67377;BME280;54261;46.086;6.588;2023-05-16T22:34:20;92269.59;;;8.20;43.96
67377;BME280;54261;46.086;6.588;2023-05-16T22:39:21;92268.50;;;8.71;43.66
67377;BME280;54261;46.086;6.588;2023-05-16T22:44:23;92275.19;;;8.42;43.00
67377;BME280;54261;46.086;6.588;2023-05-16T22:49:25;92270.00;;;8.95;42.64
67377;BME280;54261;46.086;6.588;2023-05-16T22:54:27;92277.34;;;8.80;41.83
67377;BME280;54261;46.086;6.588;2023-05-16T22:59:29;92274.59;;;9.20;41.55
67377;BME280;54261;46.086;6.588;2023-05-16T23:04:31;92245.47;;;9.28;41.46
67377;BME280;54261;46.086;6.588;2023-05-16T23:09:33;92240.22;;;7.98;43.10
67377;BME280;54261;46.086;6.588;2023-05-16T23:14:35;92262.56;;;7.56;43.97
67377;BME280;54261;46.086;6.588;2023-05-16T23:19:37;92255.34;;;8.02;44.11
67377;BME280;54261;46.086;6.588;2023-05-16T23:24:38;92281.16;;;8.07;43.86
67377;BME280;54261;46.086;6.588;2023-05-16T23:29:40;92273.34;;;9.62;41.08
67377;BME280;54261;46.086;6.588;2023-05-16T23:34:42;92275.16;;;5.93;47.73
67377;BME280;54261;46.086;6.588;2023-05-16T23:39:44;92280.31;;;8.29;44.07
67377;BME280;54261;46.086;6.588;2023-05-16T23:44:46;92274.13;;;7.65;44.18
67377;BME280;54261;46.086;6.588;2023-05-16T23:49:48;92270.31;;;8.12;44.31
67377;BME280;54261;46.086;6.588;2023-05-16T23:54:49;92282.31;;;9.13;43.46
67377;BME280;54261;46.086;6.588;2023-05-16T23:59:51;92262.06;;;8.72;42.71
